Time;durP1;ratioP1;P1;durP2;ratioP2;P2;SDS_P1;SDS_P2;PMS_P1;PMS_P2;Temp;Humidity;BMP_temperature;BMP_pressure;BME280_temperature;BME280_humidity;BME280_pressure;Samples;Min_cycle;Max_cycle;Signal;HPM_P1;HPM_P2
2022/03/13 00:02:15;;;;;;;10.87;7.40;;;;;;;3.89;42.05;102131.09;4990959;28;20194;-73
2022/03/13 00:04:42;;;;;;;11.20;7.80;;;;;;;3.86;42.16;102126.72;4990809;28;20220;-73
2022/03/13 00:07:18;;;;;;;11.30;7.63;;;;;;;3.81;41.73;102117.03;4990935;28;20229;-73
2022/03/13 00:09:45;;;;;;;11.73;7.57;;;;;;;3.77;41.64;102118.50;4991168;28;20179;-73
2022/03/13 00:12:14;;;;;;;11.60;7.80;;;;;;;3.80;42.67;102118.72;4990104;28;20692;-73
2022/03/13 00:14:42;;;;;;;11.63;7.03;;;;;;;3.77;42.29;102115.97;4971085;28;20224;-73
2022/03/13 00:17:08;;;;;;;12.00;7.37;;;;;;;3.74;42.11;102112.34;4979335;28;20189;-73
2022/03/13 00:19:34;;;;;;;11.60;7.77;;;;;;;3.78;41.39;102114.31;4969900;28;20255;-73
2022/03/13 00:21:59;;;;;;;9.87;7.03;;;;;;;3.77;42.49;102110.03;4971304;28;20531;-73
2022/03/13 00:24:25;;;;;;;9.83;7.63;;;;;;;3.77;42.14;102107.50;4969801;28;20204;-73
2022/03/13 00:26:52;;;;;;;10.03;7.33;;;;;;;3.69;42.38;102106.13;4969797;28;20680;-74
2022/03/13 00:29:18;;;;;;;8.47;6.90;;;;;;;3.70;41.77;102100.25;4971053;28;20184;-74
2022/03/13 00:31:44;;;;;;;10.20;7.33;;;;;;;3.66;42.53;102096.66;4970105;28;20207;-73
2022/03/13 00:34:09;;;;;;;11.87;7.33;;;;;;;3.62;42.14;102099.75;4971311;28;20208;-73
2022/03/13 00:36:34;;;;;;;10.07;7.10;;;;;;;3.62;41.56;102096.34;4970111;28;20196;-73
2022/03/13 00:39:00;;;;;;;11.17;7.10;;;;;;;3.60;42.23;102096.25;4971324;28;20267;-74
2022/03/13 00:41:26;;;;;;;15.00;7.37;;;;;;;3.59;42.36;102091.09;4971103;28;20227;-73
2022/03/13 00:43:51;;;;;;;10.63;6.80;;;;;;;3.58;42.52;102091.88;4970605;28;20581;-73
2022/03/13 00:46:17;;;;;;;10.97;7.37;;;;;;;3.58;42.82;102095.25;4970931;28;20560;-73
2022/03/13 00:48:42;;;;;;;13.97;7.30;;;;;;;3.50;42.82;102091.34;4970888;28;20824;-73
2022/03/13 00:51:08;;;;;;;11.57;7.47;;;;;;;3.48;42.47;102094.53;4969513;28;20654;-73
2022/03/13 00:53:33;;;;;;;8.27;7.20;;;;;;;3.43;41.96;102093.34;4953189;28;20264;-73
2022/03/13 00:55:58;;;;;;;9.87;7.27;;;;;;;3.41;42.73;102089.84;4969535;28;20196;-74
2022/03/13 00:58:23;;;;;;;11.83;7.90;;;;;;;3.45;42.34;102095.22;4970667;28;20220;-73
2022/03/13 01:00:49;;;;;;;9.33;7.50;;;;;;;3.40;42.70;102091.50;4970726;28;20204;-73
2022/03/13 01:03:47;;;;;;;9.53;7.03;;;;;;;3.34;43.40;102095.25;4970538;28;20211;-73
2022/03/13 01:06:13;;;;;;;13.53;7.40;;;;;;;3.37;43.07;102095.47;4970771;28;20585;-73
2022/03/13 01:08:43;;;;;;;10.67;6.87;;;;;;;3.38;42.10;102089.63;4970913;28;20326;-74
2022/03/13 01:11:08;;;;;;;11.80;7.37;;;;;;;3.28;42.89;102079.66;4974645;28;20219;-73
2022/03/13 01:13:35;;;;;;;11.30;7.37;;;;;;;3.31;43.04;102084.94;4982269;28;20235;-73
2022/03/13 01:16:11;;;;;;;11.00;7.17;;;;;;;3.30;42.15;102090.75;4974534;28;20204;-73
2022/03/13 01:18:44;;;;;;;12.63;7.47;;;;;;;3.30;42.67;102076.47;4993500;28;20188;-73
2022/03/13 01:21:11;;;;;;;12.00;7.53;;;;;;;3.23;42.95;102084.44;4992695;28;20215;-73
2022/03/13 01:23:39;;;;;;;9.77;6.93;;;;;;;3.29;42.65;102082.31;4993777;28;20211;-73
2022/03/13 01:26:36;;;;;;;11.47;6.90;;;;;;;3.21;42.80;102077.47;4993816;28;20728;-73
2022/03/13 01:29:13;;;;;;;9.93;7.30;;;;;;;3.21;43.08;102074.94;4993763;28;20442;-73
2022/03/13 01:31:42;;;;;;;10.97;6.83;;;;;;;3.19;42.60;102067.28;4993749;28;20270;-73
2022/03/13 01:34:11;;;;;;;9.53;6.93;;;;;;;3.08;43.02;102075.78;4993502;28;20207;-73
2022/03/13 01:36:37;;;;;;;10.77;7.10;;;;;;;3.10;42.97;102066.66;4993772;28;20211;-73
2022/03/13 01:39:04;;;;;;;10.23;7.70;;;;;;;3.08;42.10;102068.19;4993768;28;20271;-73
2022/03/13 01:41:29;;;;;;;10.97;7.50;;;;;;;3.11;43.01;102073.47;4993579;28;20215;-73
2022/03/13 01:43:59;;;;;;;11.87;7.53;;;;;;;3.10;42.77;102068.28;4993347;28;20489;-73
2022/03/13 01:46:25;;;;;;;11.00;6.97;;;;;;;3.03;43.33;102067.00;4994062;28;20195;-73
2022/03/13 01:49:06;;;;;;;11.60;7.20;;;;;;;2.97;43.10;102071.63;4993975;28;20200;-73
2022/03/13 01:51:33;;;;;;;10.17;6.90;;;;;;;2.96;43.65;102079.13;4993582;28;20622;-73
2022/03/13 01:54:08;;;;;;;10.30;7.30;;;;;;;2.92;42.93;102070.44;4993334;28;20457;-73
2022/03/13 01:56:35;;;;;;;9.80;6.90;;;;;;;2.88;43.57;102072.63;4992324;28;20835;-73
2022/03/13 01:59:02;;;;;;;13.07;7.30;;;;;;;2.86;43.86;102071.66;4993433;28;20457;-71
2022/03/13 02:01:28;;;;;;;12.23;7.40;;;;;;;2.87;42.54;102064.19;4993304;28;21182;-73
2022/03/13 02:03:54;;;;;;;11.90;7.13;;;;;;;2.81;43.50;102073.00;4993078;28;20208;-73
2022/03/13 02:06:21;;;;;;;9.80;7.63;;;;;;;2.80;43.93;102063.66;4993205;28;20615;-73
2022/03/13 02:08:47;;;;;;;11.17;7.70;;;;;;;2.79;42.91;102064.41;4993287;28;20279;-73
2022/03/13 02:11:19;;;;;;;11.03;7.37;;;;;;;2.74;42.94;102069.16;4975559;28;20478;-73
2022/03/13 02:13:49;;;;;;;10.47;7.43;;;;;;;2.76;42.68;102066.75;4987364;28;20288;-73
2022/03/13 02:16:16;;;;;;;8.43;6.53;;;;;;;2.68;43.07;102063.69;4981890;28;20514;-73
2022/03/13 02:18:46;;;;;;;11.63;8.10;;;;;;;2.59;44.03;102068.09;4992972;28;20191;-73
2022/03/13 02:21:11;;;;;;;12.20;7.60;;;;;;;2.59;43.96;102082.38;4991636;28;20211;-73
2022/03/13 02:23:37;;;;;;;11.33;7.77;;;;;;;2.56;43.88;102072.03;4992644;28;20466;-73
2022/03/13 02:26:06;;;;;;;12.50;8.13;;;;;;;2.55;44.33;102073.72;4992624;28;20731;-73
2022/03/13 02:28:35;;;;;;;14.07;8.67;;;;;;;2.52;44.26;102072.63;4992959;28;20435;-73
2022/03/13 02:31:03;;;;;;;12.30;8.67;;;;;;;2.46;44.58;102072.16;4991611;28;20439;-73
2022/03/13 02:33:29;;;;;;;12.50;8.00;;;;;;;2.43;44.43;102069.44;4992413;28;20525;-73
2022/03/13 02:35:58;;;;;;;11.50;7.67;;;;;;;2.36;45.57;102069.75;4992598;28;20443;-73
2022/03/13 02:38:25;;;;;;;12.23;7.90;;;;;;;2.33;45.78;102061.94;4991351;28;20959;-73
2022/03/13 02:40:52;;;;;;;11.67;8.23;;;;;;;2.23;45.44;102062.97;4974973;28;20531;-73
2022/03/13 02:43:18;;;;;;;12.27;7.90;;;;;;;2.17;45.95;102066.69;4992349;28;20454;-73
2022/03/13 02:45:43;;;;;;;11.40;7.33;;;;;;;2.15;46.78;102063.19;4992530;28;20424;-73
2022/03/13 02:48:11;;;;;;;11.43;8.13;;;;;;;2.08;46.88;102059.34;4992325;28;20188;-73
2022/03/13 02:50:38;;;;;;;13.47;8.60;;;;;;;2.02;46.80;102058.03;4991064;28;20192;-73
2022/03/13 02:53:04;;;;;;;11.77;8.27;;;;;;;1.94;47.49;102062.50;4992113;28;20461;-73
2022/03/13 02:55:29;;;;;;;14.63;8.33;;;;;;;1.96;47.37;102057.56;4991022;28;20844;-73
2022/03/13 02:57:55;;;;;;;11.10;8.20;;;;;;;1.87;47.18;102050.19;4992455;28;20798;-73
2022/03/13 03:00:22;;;;;;;13.77;8.70;;;;;;;1.83;46.70;102055.78;4992219;28;20211;-73
2022/03/13 03:02:48;;;;;;;14.70;9.27;;;;;;;1.89;46.61;102057.88;4990941;28;20712;-73
2022/03/13 03:05:14;;;;;;;16.50;9.90;;;;;;;1.78;47.73;102061.25;4992395;28;20450;-73
2022/03/13 03:07:40;;;;;;;13.07;8.67;;;;;;;1.75;47.71;102061.91;4987665;28;20188;-73
2022/03/13 03:10:09;;;;;;;13.30;8.23;;;;;;;1.69;47.10;102066.50;4976827;28;20510;-73
2022/03/13 03:12:35;;;;;;;15.50;8.00;;;;;;;1.66;47.06;102068.81;4974848;28;20196;-73
2022/03/13 03:15:00;;;;;;;13.93;8.57;;;;;;;1.61;47.38;102072.63;4983629;28;20459;-73
2022/03/13 03:17:26;;;;;;;16.43;8.53;;;;;;;1.53;47.60;102072.84;4990278;28;20203;-73
2022/03/13 03:19:52;;;;;;;19.53;8.90;;;;;;;1.52;47.20;102071.09;4991898;28;20216;-73
2022/03/13 03:22:18;;;;;;;13.60;8.73;;;;;;;1.57;47.27;102075.72;4991791;28;20478;-73
2022/03/13 03:24:43;;;;;;;12.77;8.27;;;;;;;1.45;47.82;102081.47;4987809;28;20212;-73
2022/03/13 03:27:09;;;;;;;14.93;9.13;;;;;;;1.39;48.09;102074.34;4972265;28;20241;-73
2022/03/13 03:29:34;;;;;;;12.90;8.20;;;;;;;1.33;47.43;102075.53;4971028;28;20231;-73
2022/03/13 03:32:00;;;;;;;13.90;9.23;;;;;;;1.26;48.67;102083.38;4971687;28;20302;-73
2022/03/13 03:34:27;;;;;;;13.20;8.50;;;;;;;1.15;48.35;102079.19;4980697;28;20216;-73
2022/03/13 03:36:58;;;;;;;13.67;8.77;;;;;;;1.19;49.15;102073.59;4984923;28;20523;-73
2022/03/13 03:39:25;;;;;;;11.90;8.47;;;;;;;1.06;49.71;102073.44;4986959;28;20432;-73
2022/03/13 03:41:51;;;;;;;12.93;8.43;;;;;;;0.96;49.98;102074.34;4970747;28;20536;-73
2022/03/13 03:44:17;;;;;;;13.13;8.57;;;;;;;0.96;49.91;102074.34;4970417;28;20463;-73
2022/03/13 03:46:45;;;;;;;13.77;8.60;;;;;;;0.94;49.45;102073.38;4972014;28;20436;-73
2022/03/13 03:49:10;;;;;;;14.90;8.90;;;;;;;0.91;49.25;102072.25;4971884;28;20444;-73
2022/03/13 03:51:36;;;;;;;13.80;8.53;;;;;;;0.85;49.95;102066.72;4983063;28;20485;-73
2022/03/13 03:54:06;;;;;;;12.13;8.73;;;;;;;0.83;49.86;102064.09;4982312;28;20251;-73
2022/03/13 03:56:32;;;;;;;14.50;9.27;;;;;;;0.83;50.03;102065.75;4983295;28;20235;-73
2022/03/13 03:58:57;;;;;;;15.23;9.37;;;;;;;0.74;50.23;102075.13;4971966;28;20452;-73
2022/03/13 04:01:22;;;;;;;12.80;8.83;;;;;;;0.73;49.97;102076.75;4979603;28;20481;-73
2022/03/13 04:03:48;;;;;;;13.63;9.33;;;;;;;0.69;50.31;102082.28;4977702;28;20823;-71
2022/03/13 04:06:16;;;;;;;13.93;9.20;;;;;;;0.65;51.21;102087.00;4970333;28;20189;-73
2022/03/13 04:08:42;;;;;;;13.90;8.83;;;;;;;0.56;51.87;102087.16;4990872;28;20419;-73
2022/03/13 04:11:08;;;;;;;15.07;9.20;;;;;;;0.57;50.71;102089.78;4989722;28;20179;-73
2022/03/13 04:13:37;;;;;;;16.00;9.07;;;;;;;0.51;51.00;102090.06;4978604;28;20213;-73
2022/03/13 04:16:04;;;;;;;13.67;9.00;;;;;;;0.42;51.33;102091.88;4984135;28;20442;-73
2022/03/13 04:18:29;;;;;;;16.00;9.70;;;;;;;0.34;51.68;102092.13;4982799;28;20448;-73
2022/03/13 04:20:57;;;;;;;15.53;9.43;;;;;;;0.34;51.75;102091.25;4970087;28;20479;-73
2022/03/13 04:23:22;;;;;;;14.73;9.93;;;;;;;0.31;51.56;102095.19;4971418;28;20860;-73
2022/03/13 04:25:47;;;;;;;16.10;9.30;;;;;;;0.38;52.01;102091.59;4988585;28;20674;-73
2022/03/13 04:28:13;;;;;;;12.80;8.73;;;;;;;0.42;51.92;102097.78;4985622;28;20709;-73
2022/03/13 04:30:39;;;;;;;14.80;9.50;;;;;;;0.52;50.94;102099.38;4977482;28;20601;-73
2022/03/13 04:33:06;;;;;;;15.97;9.03;;;;;;;0.33;52.60;102099.59;4971218;28;20212;-73
2022/03/13 04:35:31;;;;;;;17.40;10.27;;;;;;;0.29;52.75;102103.47;4970994;28;20490;-73
2022/03/13 04:37:57;;;;;;;15.43;9.63;;;;;;;0.25;52.16;102110.66;4970408;28;20462;-73
2022/03/13 04:40:22;;;;;;;14.87;9.40;;;;;;;0.23;52.18;102105.50;4969806;28;20769;-73
2022/03/13 04:42:48;;;;;;;12.63;8.53;;;;;;;0.25;52.79;102105.63;4981411;28;20195;-73
2022/03/13 04:45:13;;;;;;;15.20;9.50;;;;;;;0.13;53.51;102094.56;4988730;28;20243;-73
2022/03/13 04:47:38;;;;;;;14.80;10.30;;;;;;;0.10;53.33;102105.28;4987512;28;20219;-73
2022/03/13 04:50:04;;;;;;;12.83;8.67;;;;;;;0.09;53.34;102101.00;4985356;28;20650;-73
2022/03/13 04:52:30;;;;;;;13.13;9.13;;;;;;;0.00;52.99;102106.94;4972028;28;20752;-73
2022/03/13 04:54:55;;;;;;;14.17;8.90;;;;;;;-0.08;53.94;102102.94;4981615;28;20216;-73
2022/03/13 04:57:21;;;;;;;13.37;8.93;;;;;;;-0.09;53.95;102102.03;4971402;28;20284;-73
2022/03/13 04:59:46;;;;;;;14.13;8.70;;;;;;;0.05;52.93;102105.69;4970936;28;20250;-73
2022/03/13 05:02:12;;;;;;;17.10;10.43;;;;;;;0.01;53.09;102102.00;4974565;28;20199;-73
2022/03/13 05:04:43;;;;;;;14.20;8.90;;;;;;;-0.05;53.28;102105.66;4972019;28;20227;-73
2022/03/13 05:07:09;;;;;;;13.73;8.87;;;;;;;-0.05;53.37;102103.16;4981126;28;20827;-73
2022/03/13 05:09:35;;;;;;;15.73;9.50;;;;;;;-0.06;53.56;102102.28;4989259;28;20443;-73
2022/03/13 05:12:04;;;;;;;15.87;9.43;;;;;;;-0.10;53.63;102101.91;4985330;28;20483;-73
2022/03/13 05:14:30;;;;;;;14.30;9.07;;;;;;;-0.18;54.31;102102.94;4975584;28;20464;-72
2022/03/13 05:16:55;;;;;;;14.70;9.27;;;;;;;-0.20;54.21;102102.81;4988621;28;20991;-73
2022/03/13 05:19:20;;;;;;;12.63;8.90;;;;;;;-0.10;53.69;102100.28;4987977;28;20629;-73
2022/03/13 05:21:45;;;;;;;17.80;9.93;;;;;;;0.00;53.21;102105.28;4985040;28;20191;-73
2022/03/13 05:24:11;;;;;;;16.37;9.63;;;;;;;0.00;53.22;102099.41;4970492;28;20215;-73
2022/03/13 05:26:37;;;;;;;14.53;8.83;;;;;;;0.08;52.80;102099.25;4970812;28;20580;-73
2022/03/13 05:29:03;;;;;;;15.23;8.73;;;;;;;0.12;52.75;102090.28;4970664;28;20250;-73
2022/03/13 05:31:28;;;;;;;14.83;9.30;;;;;;;0.23;52.23;102089.50;4970892;28;20534;-72
2022/03/13 05:33:54;;;;;;;14.23;8.83;;;;;;;0.23;52.47;102092.03;4976891;28;20272;-72
2022/03/13 05:36:19;;;;;;;14.67;9.47;;;;;;;0.29;51.97;102090.03;4981561;28;20191;-73
2022/03/13 05:38:44;;;;;;;12.97;9.33;;;;;;;0.34;51.78;102091.25;4984099;28;20189;-72
2022/03/13 05:41:12;;;;;;;14.83;9.40;;;;;;;0.36;51.75;102092.25;4970479;28;20215;-73
2022/03/13 05:43:38;;;;;;;18.10;9.57;;;;;;;0.42;51.03;102094.38;4979806;28;21040;-72
2022/03/13 05:46:04;;;;;;;16.27;9.37;;;;;;;0.41;50.83;102105.22;4981900;28;20591;-73
2022/03/13 05:48:30;;;;;;;14.53;8.60;;;;;;;0.38;51.67;102101.69;4969027;28;20497;-73
2022/03/13 05:50:56;;;;;;;15.10;9.13;;;;;;;0.42;51.58;102099.41;4981503;28;20204;-73
2022/03/13 05:53:21;;;;;;;14.00;8.93;;;;;;;0.46;51.44;102093.88;4988715;28;20839;-73
2022/03/13 05:55:47;;;;;;;18.27;9.60;;;;;;;0.52;51.07;102095.25;4980601;28;20208;-73
2022/03/13 05:58:13;;;;;;;17.57;9.33;;;;;;;0.54;51.02;102101.25;4974307;28;20192;-73
2022/03/13 06:00:39;;;;;;;14.87;9.63;;;;;;;0.59;50.28;102101.66;4975193;28;20715;-72
2022/03/13 06:03:06;;;;;;;17.07;8.70;;;;;;;0.58;50.46;102110.81;4974060;28;20458;-72
2022/03/13 06:05:35;;;;;;;16.63;8.70;;;;;;;0.58;50.79;102103.25;4984468;28;20448;-73
2022/03/13 06:08:01;;;;;;;15.77;9.53;;;;;;;0.64;50.37;102105.41;4973681;28;20454;-72
2022/03/13 06:10:28;;;;;;;21.17;9.43;;;;;;;0.64;50.85;102110.44;4987381;28;20446;-72
2022/03/13 06:12:54;;;;;;;15.17;9.03;;;;;;;0.71;50.56;102112.66;4991243;28;20210;-72
2022/03/13 06:15:19;;;;;;;15.60;9.37;;;;;;;0.74;50.70;102105.34;4984400;28;20471;-72
2022/03/13 06:17:48;;;;;;;13.53;8.87;;;;;;;0.82;49.97;102109.34;4973693;28;20243;-72
2022/03/13 06:20:16;;;;;;;17.20;9.50;;;;;;;0.85;50.12;102113.00;4973507;28;20728;-73
2022/03/13 06:22:46;;;;;;;14.50;9.87;;;;;;;0.93;50.45;102114.47;4983374;28;20443;-72
2022/03/13 06:25:14;;;;;;;14.47;9.40;;;;;;;0.97;49.94;102108.00;4973225;28;20523;-72
2022/03/13 06:27:40;;;;;;;15.83;8.93;;;;;;;1.06;49.73;102111.25;4973356;28;20450;-72
2022/03/13 06:30:13;;;;;;;16.27;9.30;;;;;;;1.14;49.58;102111.06;4973288;28;20969;-72
2022/03/13 06:32:39;;;;;;;16.80;10.37;;;;;;;1.21;50.00;102117.47;4972045;28;20499;-72
2022/03/13 06:35:05;;;;;;;15.63;9.73;;;;;;;1.28;49.57;102112.13;4972971;28;20534;-73
2022/03/13 06:37:30;;;;;;;16.20;10.17;;;;;;;1.32;49.36;102117.50;4973302;28;20475;-72
2022/03/13 06:39:55;;;;;;;16.63;10.07;;;;;;;1.43;48.60;102116.69;4973029;28;20208;-72
2022/03/13 06:42:21;;;;;;;16.87;10.13;;;;;;;1.54;48.95;102120.91;4955701;28;20223;-73
2022/03/13 06:44:46;;;;;;;15.90;10.07;;;;;;;1.57;48.70;102111.06;4972941;28;20255;-73
2022/03/13 06:47:13;;;;;;;16.53;9.60;;;;;;;1.67;48.16;102123.59;4973232;28;20188;-72
2022/03/13 06:49:39;;;;;;;14.70;9.27;;;;;;;1.88;47.34;102122.63;4973129;28;20486;-72
2022/03/13 06:52:04;;;;;;;12.43;9.57;;;;;;;2.04;46.87;102123.03;4973310;28;20192;-72
2022/03/13 06:54:30;;;;;;;12.40;8.37;;;;;;;2.25;46.42;102123.72;4972789;28;20215;-73
2022/03/13 06:56:55;;;;;;;11.83;7.80;;;;;;;2.51;45.58;102119.75;4973087;28;20768;-73
2022/03/13 06:59:20;;;;;;;14.57;8.93;;;;;;;2.69;44.62;102117.63;4972773;28;20291;-73
2022/03/13 07:01:46;;;;;;;13.83;8.43;;;;;;;2.63;44.27;102107.09;4972882;28;20224;-73
2022/03/13 07:04:12;;;;;;;12.27;8.57;;;;;;;2.94;42.39;102105.97;4977210;28;20263;-72
2022/03/13 07:06:38;;;;;;;14.13;9.03;;;;;;;3.08;43.08;102116.25;4970609;28;20275;-72
2022/03/13 07:09:03;;;;;;;12.00;7.77;;;;;;;3.22;41.55;102120.59;4955363;28;20247;-72
2022/03/13 07:11:32;;;;;;;12.20;7.93;;;;;;;3.42;41.99;102119.44;4972684;28;20197;-72
2022/03/13 07:13:58;;;;;;;11.83;7.60;;;;;;;3.45;41.69;102115.47;4972333;28;20224;-73
2022/03/13 07:16:23;;;;;;;12.53;8.47;;;;;;;3.70;42.18;102106.22;4971348;28;20192;-73
2022/03/13 07:18:48;;;;;;;12.53;7.87;;;;;;;4.01;41.19;102109.13;4972530;28;20180;-72
2022/03/13 07:21:14;;;;;;;11.60;8.17;;;;;;;3.96;40.65;102111.34;4972555;28;20216;-73
2022/03/13 07:23:39;;;;;;;12.40;7.90;;;;;;;4.06;40.10;102106.13;4972312;28;20215;-72
2022/03/13 07:26:04;;;;;;;13.40;8.57;;;;;;;4.21;40.21;102114.72;4972680;28;20254;-72
2022/03/13 07:28:30;;;;;;;11.27;7.63;;;;;;;4.27;39.60;102099.00;4972680;28;20224;-72
2022/03/13 07:30:56;;;;;;;15.83;8.50;;;;;;;4.52;39.89;102098.13;4955112;28;20188;-73
2022/03/13 07:33:22;;;;;;;13.17;8.73;;;;;;;4.66;39.75;102097.34;4972035;28;20216;-73
2022/03/13 07:35:47;;;;;;;13.60;8.30;;;;;;;4.77;38.81;102100.53;4972214;28;20199;-73
2022/03/13 07:38:12;;;;;;;13.27;8.87;;;;;;;4.89;39.29;102103.84;4972207;28;20184;-73
2022/03/13 07:40:38;;;;;;;11.40;8.07;;;;;;;4.85;39.03;102090.09;4954981;28;20675;-73
2022/03/13 07:43:06;;;;;;;12.13;8.10;;;;;;;4.68;37.91;102092.34;4972220;28;20185;-73
2022/03/13 07:45:31;;;;;;;13.40;9.00;;;;;;;5.03;38.34;102093.78;4970943;28;20196;-73
2022/03/13 07:47:59;;;;;;;10.60;8.10;;;;;;;4.70;38.74;102093.34;4970830;28;20184;-73
2022/03/13 07:50:25;;;;;;;11.90;8.37;;;;;;;5.21;37.69;102081.31;4970540;28;20195;-72
2022/03/13 07:52:50;;;;;;;13.07;8.43;;;;;;;5.22;37.16;102088.13;4970475;28;20670;-73
2022/03/13 07:55:16;;;;;;;11.67;8.03;;;;;;;5.29;38.47;102072.50;4971632;28;20209;-72
2022/03/13 07:57:42;;;;;;;15.57;8.73;;;;;;;5.34;38.04;102079.59;4971725;28;20203;-73
2022/03/13 08:00:10;;;;;;;14.40;8.57;;;;;;;5.42;37.32;102074.97;4971803;28;20212;-73
2022/03/13 08:02:44;;;;;;;10.73;7.80;;;;;;;5.79;37.28;102076.34;4971837;28;20654;-73
2022/03/13 08:05:10;;;;;;;12.37;8.43;;;;;;;5.84;37.03;102077.53;4978780;28;20243;-73
2022/03/13 08:07:35;;;;;;;14.27;8.30;;;;;;;5.76;36.94;102073.63;4983088;28;20219;-74
2022/03/13 08:10:01;;;;;;;13.77;8.43;;;;;;;6.36;36.20;102069.53;4972983;28;20187;-74
2022/03/13 08:12:27;;;;;;;15.30;8.07;;;;;;;6.26;36.25;102070.66;4976058;28;20191;-74
2022/03/13 08:14:52;;;;;;;11.50;7.77;;;;;;;5.95;36.34;102077.34;4975498;28;20709;-74
2022/03/13 08:17:18;;;;;;;11.33;8.10;;;;;;;6.13;36.17;102075.84;4971007;28;20578;-74
2022/03/13 08:19:43;;;;;;;12.93;8.43;;;;;;;6.62;35.74;102079.44;4982365;28;20227;-74
2022/03/13 08:22:09;;;;;;;10.80;7.77;;;;;;;7.18;36.76;102070.66;4990183;28;20227;-76
2022/03/13 08:24:34;;;;;;;10.60;8.17;;;;;;;7.21;35.34;102070.78;5005356;28;20208;-73
2022/03/13 08:26:59;;;;;;;12.67;8.57;;;;;;;6.87;34.71;102072.38;4989009;28;20237;-73
2022/03/13 08:29:25;;;;;;;12.00;7.97;;;;;;;7.43;34.66;102069.47;4975521;28;20235;-74
2022/03/13 08:31:50;;;;;;;10.50;7.50;;;;;;;7.18;34.22;102065.56;4970948;28;20223;-74
2022/03/13 08:34:19;;;;;;;11.70;8.17;;;;;;;7.38;34.50;102063.22;4985312;28;20263;-74
2022/03/13 08:36:47;;;;;;;13.13;8.60;;;;;;;7.21;34.43;102058.94;4970834;28;20227;-74
2022/03/13 08:39:12;;;;;;;10.23;7.50;;;;;;;7.76;33.54;102058.41;4971096;28;20192;-74
2022/03/13 08:41:38;;;;;;;11.63;8.13;;;;;;;7.87;33.39;102058.97;4969456;28;20230;-74
2022/03/13 08:44:05;;;;;;;13.23;8.30;;;;;;;8.21;33.48;102050.47;4985453;28;20196;-74
2022/03/13 08:46:30;;;;;;;11.20;8.10;;;;;;;8.20;32.86;102055.50;4969755;28;20255;-74
2022/03/13 08:48:55;;;;;;;10.93;8.27;;;;;;;8.25;32.28;102056.63;4970795;28;20239;-73
2022/03/13 08:51:23;;;;;;;11.63;8.70;;;;;;;8.15;33.07;102052.72;4970621;28;20272;-75
2022/03/13 08:53:49;;;;;;;12.50;7.83;;;;;;;8.60;31.85;102051.47;4969220;28;20617;-74
2022/03/13 08:56:15;;;;;;;11.63;7.73;;;;;;;8.91;32.57;102052.97;4969267;28;20192;-74
2022/03/13 08:58:42;;;;;;;12.27;8.63;;;;;;;9.36;31.17;102046.47;4980558;28;20202;-75
2022/03/13 09:01:08;;;;;;;12.00;8.33;;;;;;;9.55;31.67;102049.00;5005035;28;20219;-75
2022/03/13 09:03:34;;;;;;;11.10;8.30;;;;;;;9.53;31.71;102043.81;4989625;28;20318;-74
2022/03/13 09:05:59;;;;;;;12.70;8.03;;;;;;;9.65;31.40;102041.78;4989858;28;20340;-74
2022/03/13 09:08:26;;;;;;;10.87;7.77;;;;;;;9.57;30.75;102039.69;4981232;28;20206;-75
2022/03/13 09:10:52;;;;;;;13.17;8.37;;;;;;;9.68;30.54;102041.06;4983251;28;20191;-75
2022/03/13 09:13:19;;;;;;;10.47;7.93;;;;;;;10.09;29.56;102036.00;4978114;28;20247;-73
2022/03/13 09:15:44;;;;;;;12.03;7.80;;;;;;;10.38;30.11;102036.34;4981970;28;20356;-74
2022/03/13 09:18:10;;;;;;;9.43;7.33;;;;;;;11.06;30.28;102039.78;4988660;28;20317;-73
2022/03/13 09:20:35;;;;;;;11.30;8.37;;;;;;;10.74;29.53;102044.56;4970700;28;20216;-73
2022/03/13 09:23:00;;;;;;;10.07;7.97;;;;;;;11.45;29.69;102046.34;4970584;28;20192;-74
2022/03/13 09:25:26;;;;;;;12.07;8.23;;;;;;;11.56;28.81;102039.03;4970615;28;20280;-74
2022/03/13 09:27:52;;;;;;;11.43;8.40;;;;;;;12.38;28.58;102030.66;4970505;28;20262;-72
2022/03/13 09:30:17;;;;;;;11.17;8.07;;;;;;;13.10;25.94;102035.47;4970365;28;20291;-72
2022/03/13 09:32:43;;;;;;;9.33;7.43;;;;;;;17.36;21.89;102012.16;4974200;28;20223;-72
2022/03/13 09:35:11;;;;;;;9.83;7.73;;;;;;;20.47;18.12;101998.88;4973943;28;20208;-74
2022/03/13 09:37:39;;;;;;;9.33;8.10;;;;;;;22.47;17.35;101997.63;4974250;28;20196;-73
2022/03/13 09:40:05;;;;;;;9.65;8.60;;;;;;;21.89;17.05;102007.72;4974047;28;20220;-72
2022/03/13 09:42:30;;;;;;;9.57;7.90;;;;;;;22.33;17.07;102002.94;4974075;28;20669;-72
2022/03/13 09:44:59;;;;;;;9.07;7.72;;;;;;;22.97;16.26;102000.53;4973751;28;20251;-72
2022/03/13 09:47:25;;;;;;;10.98;8.20;;;;;;;22.01;15.88;102002.38;4972580;28;20212;-72
2022/03/13 09:49:51;;;;;;;8.15;7.35;;;;;;;22.56;16.03;102005.38;4973936;28;20239;-72
2022/03/13 09:52:16;;;;;;;9.43;8.30;;;;;;;23.05;15.64;101991.69;4967959;28;20200;-71
2022/03/13 09:54:42;;;;;;;8.43;7.65;;;;;;;23.29;14.94;101988.78;4995077;28;20286;-71
2022/03/13 09:57:07;;;;;;;8.50;7.70;;;;;;;22.73;16.26;101995.56;4985891;28;20279;-71
2022/03/13 09:59:34;;;;;;;8.13;7.32;;;;;;;23.95;14.83;101995.63;4973815;28;20279;-71
2022/03/13 10:02:02;;;;;;;9.38;8.40;;;;;;;21.89;16.42;101986.84;4984780;28;20618;-71
2022/03/13 10:04:28;;;;;;;10.20;7.95;;;;;;;23.51;15.58;101984.09;4977281;28;20250;-71
2022/03/13 10:06:59;;;;;;;9.40;7.60;;;;;;;23.37;14.96;101980.81;4988650;28;20185;-72
2022/03/13 10:09:26;;;;;;;8.93;8.02;;;;;;;23.89;15.08;101979.97;4973378;28;20553;-71
2022/03/13 10:12:12;;;;;;;9.27;8.25;;;;;;;25.67;14.40;101972.81;4973596;28;20177;-71
2022/03/13 10:14:53;;;;;;;10.63;7.80;;;;;;;26.17;13.38;101964.53;5001286;28;20219;-72
2022/03/13 10:17:29;;;;;;;9.02;7.78;;;;;;;26.22;13.25;101974.91;4979956;28;20271;-72
2022/03/13 10:20:11;;;;;;;8.57;7.70;;;;;;;26.85;13.05;101963.47;4986599;28;20224;-71
2022/03/13 10:22:36;;;;;;;10.10;8.18;;;;;;;25.13;13.67;101973.19;4992833;28;20808;-71
2022/03/13 10:25:01;;;;;;;8.90;7.93;;;;;;;26.64;13.24;101969.38;4992499;28;20218;-72
2022/03/13 10:27:27;;;;;;;8.60;7.57;;;;;;;26.53;13.01;101976.66;4987886;28;20193;-71
2022/03/13 10:29:52;;;;;;;8.45;7.55;;;;;;;25.63;14.32;101976.41;4988021;28;20549;-72
2022/03/13 10:32:20;;;;;;;8.40;7.60;;;;;;;28.18;12.92;101963.53;4949691;28;20245;-72
2022/03/13 10:34:57;;;;;;;8.88;8.07;;;;;;;27.99;12.40;101959.81;4972151;28;20354;-73
2022/03/13 10:37:40;;;;;;;8.60;7.55;;;;;;;28.98;11.92;101963.25;4981056;28;20187;-72
2022/03/13 10:40:18;;;;;;;8.30;7.50;;;;;;;29.46;11.27;101970.09;4973340;28;20914;-73
2022/03/13 10:42:50;;;;;;;7.93;7.22;;;;;;;28.17;12.02;101955.69;4971815;28;20690;-73
2022/03/13 10:45:49;;;;;;;9.00;7.65;;;;;;;29.19;12.13;101965.06;4972830;28;20220;-73
2022/03/13 10:48:16;;;;;;;9.15;8.25;;;;;;;29.87;11.35;101955.19;4973244;28;20179;-73
2022/03/13 10:50:44;;;;;;;9.02;7.40;;;;;;;28.38;11.53;101961.06;4971814;28;20224;-73
2022/03/13 10:53:12;;;;;;;9.32;7.30;;;;;;;29.91;11.32;101959.44;4972840;28;20721;-73
2022/03/13 10:55:38;;;;;;;8.68;7.25;;;;;;;30.23;10.86;101958.06;4972735;28;20188;-73
2022/03/13 10:58:03;;;;;;;8.40;7.60;;;;;;;29.24;11.16;101952.53;4972789;28;20198;-73
2022/03/13 11:00:29;;;;;;;7.00;6.32;;;;;;;30.31;10.74;101962.09;4972627;28;20279;-73
2022/03/13 11:03:10;;;;;;;7.50;6.80;;;;;;;29.98;11.48;101956.44;4972210;28;20651;-74
2022/03/13 11:05:35;;;;;;;8.52;7.60;;;;;;;30.76;10.66;101948.59;4977757;28;20216;-73
2022/03/13 11:08:04;;;;;;;8.95;7.40;;;;;;;30.24;10.69;101955.34;4976444;28;20228;-74
2022/03/13 11:10:30;;;;;;;7.55;6.80;;;;;;;32.03;10.43;101946.69;4972359;28;20188;-74
2022/03/13 11:12:57;;;;;;;7.43;6.72;;;;;;;30.65;10.95;101948.22;4975936;28;20219;-74
2022/03/13 11:15:29;;;;;;;8.15;7.35;;;;;;;31.11;10.41;101945.16;4982563;28;20270;-73
2022/03/13 11:17:56;;;;;;;7.47;6.72;;;;;;;30.89;10.59;101945.31;4972480;28;20227;-73
2022/03/13 11:20:23;;;;;;;9.85;7.72;;;;;;;30.78;10.23;101931.72;4972266;28;20216;-74
2022/03/13 11:22:50;;;;;;;9.13;7.38;;;;;;;32.75;10.17;101925.13;4972298;28;20196;-74
2022/03/13 11:25:15;;;;;;;7.80;7.00;;;;;;;32.09;9.79;101927.84;4977614;28;20269;-73